createdAt,value
2022-12-08T00:01:34.323Z,61.18
2022-12-08T00:04:03.212Z,60.82
2022-12-08T00:07:01.678Z,60.84
2022-12-08T00:09:39.527Z,60.75
2022-12-08T00:12:13.126Z,60.79
2022-12-08T00:14:45.348Z,60.57
2022-12-08T00:17:15.331Z,60.62
2022-12-08T00:19:43.500Z,60.56
2022-12-08T00:22:12.139Z,60.29
2022-12-08T00:24:40.992Z,60.04
2022-12-08T00:27:09.612Z,60.20
2022-12-08T00:29:37.991Z,60.04
2022-12-08T00:32:06.114Z,60.08
2022-12-08T00:34:34.373Z,60.11
2022-12-08T00:37:02.170Z,60.20
2022-12-08T00:39:29.962Z,60.18
2022-12-08T00:42:13.211Z,60.17
2022-12-08T00:44:42.699Z,59.91
2022-12-08T00:47:11.073Z,59.91
2022-12-08T00:49:39.140Z,59.64
2022-12-08T00:52:07.009Z,59.58
2022-12-08T00:54:34.870Z,58.78
2022-12-08T00:57:02.775Z,58.36
2022-12-08T00:59:30.564Z,59.95
2022-12-08T01:01:58.571Z,60.94
2022-12-08T01:04:26.319Z,64.66
2022-12-08T01:06:54.306Z,67.24
2022-12-08T01:09:22.142Z,67.48
2022-12-08T01:11:50.037Z,66.51
2022-12-08T01:14:17.897Z,65.44
2022-12-08T01:16:45.834Z,64.30
2022-12-08T01:19:14.982Z,63.84
2022-12-08T01:21:43.337Z,63.13
2022-12-08T01:24:18.018Z,62.78
2022-12-08T01:26:46.194Z,62.15
2022-12-08T01:29:14.115Z,61.82
2022-12-08T01:31:41.948Z,61.61
2022-12-08T01:34:10.660Z,61.50
2022-12-08T01:36:38.741Z,61.02
2022-12-08T01:39:14.913Z,60.90
2022-12-08T01:41:43.889Z,60.57
2022-12-08T01:44:11.740Z,60.31
2022-12-08T01:46:44.644Z,60.42
2022-12-08T01:49:19.660Z,60.16
2022-12-08T01:52:03.305Z,60.29
2022-12-08T01:54:34.436Z,60.24
2022-12-08T01:57:31.074Z,60.18
2022-12-08T02:00:05.064Z,59.87
2022-12-08T02:02:58.070Z,59.91
2022-12-08T02:05:30.213Z,60.09
2022-12-08T02:07:58.646Z,60.19
2022-12-08T02:10:29.520Z,60.28
2022-12-08T02:12:58.083Z,60.25
2022-12-08T02:16:04.248Z,60.32
2022-12-08T02:18:42.709Z,60.29
2022-12-08T02:21:33.581Z,60.12
2022-12-08T02:24:47.528Z,60.27
2022-12-08T02:27:33.636Z,60.12
2022-12-08T02:30:26.671Z,60.19
2022-12-08T02:33:17.832Z,60.19
2022-12-08T02:35:59.203Z,60.03
2022-12-08T02:38:53.089Z,60.13
2022-12-08T02:41:35.655Z,59.98
2022-12-08T02:44:18.016Z,60.02
2022-12-08T02:46:54.389Z,60.07
2022-12-08T02:49:22.189Z,60.08
2022-12-08T02:51:50.054Z,59.82
2022-12-08T02:54:17.833Z,59.95
2022-12-08T02:56:55.014Z,60.04
2022-12-08T02:59:32.699Z,59.81
2022-12-08T03:02:38.499Z,59.83
2022-12-08T03:05:36.219Z,59.75
2022-12-08T03:08:09.119Z,59.77
2022-12-08T03:10:56.368Z,59.84
2022-12-08T03:13:29.955Z,59.83
2022-12-08T03:15:57.979Z,59.82
2022-12-08T03:18:28.986Z,59.77
2022-12-08T03:20:57.238Z,59.96
2022-12-08T03:23:25.158Z,60.08
2022-12-08T03:25:59.794Z,60.15
2022-12-08T03:28:27.660Z,60.24
2022-12-08T03:30:57.254Z,60.28
2022-12-08T03:33:33.643Z,60.20
2022-12-08T03:36:01.996Z,60.39
2022-12-08T03:38:45.132Z,60.47
2022-12-08T03:41:18.956Z,60.67
2022-12-08T03:43:49.467Z,60.83
2022-12-08T03:46:18.002Z,60.87
2022-12-08T03:48:45.918Z,60.71
2022-12-08T03:51:14.202Z,60.67
2022-12-08T03:53:42.258Z,60.64
2022-12-08T03:56:45.962Z,60.53
2022-12-08T03:59:13.832Z,60.57
2022-12-08T04:01:41.766Z,60.32
2022-12-08T04:04:09.664Z,59.89
2022-12-08T04:06:37.563Z,59.81
2022-12-08T04:09:05.416Z,59.79
2022-12-08T04:11:33.232Z,59.76
2022-12-08T04:14:00.982Z,59.69
2022-12-08T04:16:28.947Z,59.71
2022-12-08T04:18:56.718Z,59.77
2022-12-08T04:21:24.536Z,59.95
2022-12-08T04:23:56.227Z,59.99
2022-12-08T04:26:28.951Z,60.23
2022-12-08T04:28:56.816Z,60.30
2022-12-08T04:31:24.597Z,59.95
2022-12-08T04:33:52.547Z,59.88
2022-12-08T04:36:20.619Z,60.12
2022-12-08T04:38:48.484Z,60.23
2022-12-08T04:41:16.311Z,60.18
2022-12-08T04:43:44.623Z,59.97
2022-12-08T04:46:12.665Z,59.86
2022-12-08T04:48:40.940Z,59.83
2022-12-08T04:51:16.204Z,59.87
2022-12-08T04:53:46.706Z,59.96
2022-12-08T04:56:18.193Z,59.80
2022-12-08T04:58:46.256Z,59.72
2022-12-08T05:01:14.425Z,59.84
2022-12-08T05:03:42.512Z,59.80
2022-12-08T05:06:13.040Z,59.89
2022-12-08T05:08:42.329Z,59.79
2022-12-08T05:11:11.520Z,59.85
2022-12-08T05:13:39.421Z,59.84
2022-12-08T05:16:13.113Z,60.23
2022-12-08T05:18:41.920Z,60.45
2022-12-08T05:21:09.917Z,60.32
2022-12-08T05:23:37.745Z,60.35
2022-12-08T05:26:05.883Z,60.54
2022-12-08T05:28:42.594Z,60.71
2022-12-08T05:31:12.378Z,61.02
2022-12-08T05:33:40.553Z,61.29
2022-12-08T05:36:09.633Z,61.07
2022-12-08T05:38:37.600Z,60.93
2022-12-08T05:41:16.540Z,60.86
2022-12-08T05:43:44.391Z,60.67
2022-12-08T05:46:12.473Z,60.52
2022-12-08T05:48:40.738Z,60.27
2022-12-08T05:51:18.058Z,60.08
2022-12-08T05:53:46.913Z,59.84
2022-12-08T05:56:14.988Z,59.88
2022-12-08T05:58:42.846Z,60.06
2022-12-08T06:01:25.459Z,60.13
2022-12-08T06:03:53.528Z,59.93
2022-12-08T06:06:21.714Z,59.87
2022-12-08T06:08:49.647Z,59.80
2022-12-08T06:11:22.907Z,59.72
2022-12-08T06:13:51.134Z,59.73
2022-12-08T06:16:19.358Z,59.66
2022-12-08T06:18:47.274Z,59.64
2022-12-08T06:21:15.653Z,59.40
2022-12-08T06:23:44.340Z,57.65
2022-12-08T06:26:13.836Z,57.99
2022-12-08T06:28:42.016Z,60.06
2022-12-08T06:31:16.031Z,62.92
2022-12-08T06:33:44.102Z,66.87
2022-12-08T06:36:13.842Z,66.66
2022-12-08T06:38:43.570Z,65.55
2022-12-08T06:41:12.406Z,64.33
2022-12-08T06:43:41.087Z,63.67
2022-12-08T06:46:12.884Z,63.09
2022-12-08T06:48:41.018Z,62.76
2022-12-08T06:51:11.320Z,62.22
2022-12-08T06:53:39.287Z,61.62
2022-12-08T06:56:07.478Z,61.32
2022-12-08T06:58:35.580Z,61.09
2022-12-08T07:01:12.156Z,60.71
2022-12-08T07:03:40.905Z,60.83
2022-12-08T07:06:13.674Z,60.93
2022-12-08T07:08:41.657Z,60.75
2022-12-08T07:11:10.443Z,60.61
2022-12-08T07:13:38.512Z,60.41
2022-12-08T07:16:08.918Z,60.26
2022-12-08T07:18:36.904Z,60.29
2022-12-08T07:21:10.817Z,60.23
2022-12-08T07:23:39.087Z,60.05
2022-12-08T07:26:08.518Z,60.16
2022-12-08T07:28:37.604Z,59.99
2022-12-08T07:31:06.280Z,59.90
2022-12-08T07:33:34.442Z,58.83
2022-12-08T07:36:06.913Z,57.72
2022-12-08T07:38:34.729Z,58.92
2022-12-08T07:41:02.592Z,60.14
2022-12-08T07:43:30.408Z,60.83
2022-12-08T07:45:58.368Z,61.84
2022-12-08T07:48:26.242Z,67.39
2022-12-08T07:51:01.685Z,69.14
2022-12-08T07:53:30.007Z,66.53
2022-12-08T07:55:57.849Z,64.81
2022-12-08T07:58:25.989Z,63.47
2022-12-08T08:00:53.981Z,62.79
2022-12-08T08:03:22.495Z,62.46
2022-12-08T08:05:50.319Z,61.62
2022-12-08T08:08:18.572Z,61.67
2022-12-08T08:10:47.382Z,61.84
2022-12-08T08:13:15.204Z,61.88
2022-12-08T08:15:43.139Z,61.52
2022-12-08T08:18:11.119Z,61.09
2022-12-08T08:20:39.009Z,60.44
2022-12-08T08:23:06.909Z,59.94
2022-12-08T08:25:34.774Z,59.52
2022-12-08T08:28:02.637Z,58.50
2022-12-08T08:30:30.424Z,57.95
2022-12-08T08:32:58.185Z,59.32
2022-12-08T08:35:25.992Z,62.05
2022-12-08T08:37:53.781Z,66.75
2022-12-08T08:40:21.595Z,66.08
2022-12-08T08:42:49.424Z,64.20
2022-12-08T08:45:17.390Z,63.40
2022-12-08T08:47:45.462Z,61.99
2022-12-08T08:50:13.430Z,61.10
2022-12-08T08:52:41.213Z,60.65
2022-12-08T08:55:09.365Z,59.79
2022-12-08T08:57:37.170Z,58.83
2022-12-08T09:00:10.172Z,57.63
2022-12-08T09:02:38.541Z,58.12
2022-12-08T09:05:07.312Z,60.16
2022-12-08T09:07:35.317Z,61.61
2022-12-08T09:10:03.913Z,64.97
2022-12-08T09:12:32.142Z,68.05
2022-12-08T09:14:59.969Z,67.25
2022-12-08T09:17:27.814Z,65.46
2022-12-08T09:19:55.800Z,64.62
2022-12-08T09:22:23.974Z,63.27
2022-12-08T09:24:52.455Z,62.34
2022-12-08T09:27:20.250Z,61.15
2022-12-08T09:29:48.306Z,60.27
2022-12-08T09:32:16.389Z,58.24
2022-12-08T09:34:48.938Z,58.19
2022-12-08T09:37:19.823Z,58.65
2022-12-08T09:39:47.736Z,59.80
2022-12-08T09:42:15.513Z,61.50
2022-12-08T09:45:19.833Z,65.49
2022-12-08T09:48:07.969Z,66.27
2022-12-08T09:50:56.472Z,64.88
2022-12-08T09:53:36.261Z,63.00
2022-12-08T09:56:25.339Z,61.73
2022-12-08T09:59:00.488Z,60.56
2022-12-08T10:01:33.810Z,60.48
2022-12-08T10:04:01.670Z,59.43
2022-12-08T10:06:34.782Z,56.93
2022-12-08T10:09:12.842Z,56.18
2022-12-08T10:11:56.138Z,58.34
2022-12-08T10:14:43.329Z,60.75
2022-12-08T10:17:36.309Z,64.86
2022-12-08T10:20:11.847Z,64.81
2022-12-08T10:22:44.462Z,62.21
2022-12-08T10:25:19.241Z,60.90
2022-12-08T10:27:49.579Z,60.27
2022-12-08T10:30:19.285Z,58.92
2022-12-08T10:32:50.064Z,56.54
2022-12-08T10:35:19.838Z,57.48
2022-12-08T10:38:01.651Z,57.67
2022-12-08T10:40:40.588Z,60.05
2022-12-08T10:43:18.768Z,60.06
2022-12-08T10:45:46.621Z,60.55
2022-12-08T10:48:21.045Z,64.05
2022-12-08T10:50:56.419Z,67.18
2022-12-08T10:53:32.357Z,65.73
2022-12-08T10:56:02.979Z,64.46
2022-12-08T10:58:40.984Z,62.37
2022-12-08T11:01:24.419Z,60.73
2022-12-08T11:03:55.681Z,59.04
2022-12-08T11:06:29.202Z,56.89
2022-12-08T11:08:59.980Z,58.14
2022-12-08T11:11:48.534Z,58.38
2022-12-08T11:14:25.302Z,58.61
2022-12-08T11:17:02.487Z,63.82
2022-12-08T11:19:30.457Z,67.14
2022-12-08T11:21:58.323Z,65.62
2022-12-08T11:24:32.305Z,62.96
2022-12-08T11:27:04.556Z,61.37
2022-12-08T11:29:34.140Z,60.23
2022-12-08T11:32:08.187Z,58.53
2022-12-08T11:34:43.238Z,57.22
2022-12-08T11:37:18.146Z,57.69
2022-12-08T11:39:49.384Z,59.14
2022-12-08T11:42:18.798Z,61.06
2022-12-08T11:44:51.341Z,59.90
2022-12-08T11:47:26.412Z,59.22
2022-12-08T11:50:04.091Z,59.97
2022-12-08T11:52:35.490Z,63.11
2022-12-08T11:55:18.170Z,70.98
2022-12-08T11:57:46.027Z,69.25
2022-12-08T12:00:14.623Z,66.44
2022-12-08T12:02:46.974Z,63.52
2022-12-08T12:06:03.368Z,62.31
2022-12-08T12:08:44.076Z,60.85
2022-12-08T12:11:43.282Z,58.95
2022-12-08T12:14:31.764Z,57.24
2022-12-08T12:17:06.026Z,58.40
2022-12-08T12:19:36.942Z,59.22
2022-12-08T12:22:17.734Z,60.93
2022-12-08T12:24:48.879Z,60.98
2022-12-08T12:27:28.008Z,62.47
2022-12-08T12:30:01.808Z,68.76
2022-12-08T12:33:00.843Z,68.07
2022-12-08T12:35:42.003Z,63.94
2022-12-08T12:38:44.836Z,61.96
2022-12-08T12:41:13.063Z,61.62
2022-12-08T12:43:41.128Z,61.48
2022-12-08T12:46:24.206Z,60.65
2022-12-08T12:48:52.292Z,58.50
2022-12-08T12:51:41.549Z,57.08
2022-12-08T12:54:26.643Z,57.61
2022-12-08T12:56:56.678Z,58.20
2022-12-08T12:59:42.587Z,60.23
2022-12-08T13:02:20.640Z,61.54
2022-12-08T13:05:17.532Z,65.42
2022-12-08T13:07:50.256Z,68.52
2022-12-08T13:10:24.309Z,66.39
2022-12-08T13:13:12.873Z,65.48
2022-12-08T13:15:48.732Z,64.29
2022-12-08T13:18:38.081Z,63.00
2022-12-08T13:21:08.913Z,62.37
2022-12-08T13:23:36.890Z,61.67
2022-12-08T13:26:19.862Z,61.83
2022-12-08T13:29:01.420Z,61.02
2022-12-08T13:31:35.193Z,60.70
2022-12-08T13:34:16.472Z,60.12
2022-12-08T13:37:10.661Z,59.25
2022-12-08T13:40:08.811Z,57.37
2022-12-08T13:42:47.024Z,58.80
2022-12-08T13:45:36.240Z,60.14
2022-12-08T13:49:18.524Z,62.09
2022-12-08T13:57:14.161Z,64.47
2022-12-08T13:59:45.732Z,63.39
2022-12-08T14:02:33.417Z,62.63
2022-12-08T14:05:19.096Z,61.65
2022-12-08T14:07:50.009Z,61.07
2022-12-08T14:10:32.099Z,60.84
2022-12-08T14:13:04.085Z,60.91
2022-12-08T14:15:38.094Z,60.53
2022-12-08T14:18:20.196Z,60.46
2022-12-08T14:21:19.321Z,60.23
2022-12-08T14:23:36.652Z,59.86
2022-12-08T14:26:05.350Z,59.82
2022-12-08T14:28:33.611Z,59.81
2022-12-08T14:31:01.673Z,59.81
2022-12-08T14:33:29.656Z,59.94
2022-12-08T14:35:57.475Z,59.81
2022-12-08T14:38:25.550Z,59.61
2022-12-08T14:41:07.812Z,59.80
2022-12-08T14:43:35.836Z,59.64
2022-12-08T14:46:14.226Z,59.77
2022-12-08T14:48:45.314Z,59.72
2022-12-08T14:51:21.297Z,59.62
2022-12-08T14:54:09.670Z,59.48
2022-12-08T14:56:52.240Z,58.10
2022-12-08T14:59:23.084Z,59.05
2022-12-08T15:01:53.121Z,60.74
2022-12-08T15:04:27.084Z,62.39
2022-12-08T15:07:35.808Z,68.35
2022-12-08T15:10:17.305Z,66.83
2022-12-08T15:12:58.272Z,65.10
2022-12-08T15:15:26.542Z,63.73
2022-12-08T15:18:03.417Z,63.07
2022-12-08T15:20:40.894Z,62.82
2022-12-08T15:23:22.117Z,62.48
2022-12-08T15:25:50.156Z,62.02
2022-12-08T15:28:23.982Z,61.76
2022-12-08T15:30:56.763Z,61.60
2022-12-08T15:33:24.710Z,61.59
2022-12-08T15:35:52.678Z,61.39
2022-12-08T15:38:31.409Z,61.38
2022-12-08T15:41:00.184Z,61.10
2022-12-08T15:43:28.188Z,61.15
2022-12-08T15:46:00.261Z,60.80
2022-12-08T15:48:29.736Z,60.89
2022-12-08T15:50:57.997Z,60.99
2022-12-08T15:53:26.171Z,60.63
2022-12-08T15:56:25.916Z,60.59
2022-12-08T15:58:58.183Z,59.99
2022-12-08T16:01:26.917Z,60.16
2022-12-08T16:04:47.764Z,60.33
2022-12-08T16:09:38.949Z,59.71
2022-12-08T16:15:51.646Z,59.92
2022-12-08T16:18:27.113Z,59.72
2022-12-08T16:21:39.980Z,59.78
2022-12-08T16:23:44.881Z,59.86
2022-12-08T16:27:35.182Z,59.66
2022-12-08T16:29:02.869Z,57.99
2022-12-08T16:31:30.900Z,57.52
2022-12-08T16:33:58.883Z,58.91
2022-12-08T16:36:26.752Z,61.55
2022-12-08T16:38:54.524Z,62.60
2022-12-08T16:41:41.426Z,68.65
2022-12-08T16:44:09.291Z,68.75
2022-12-08T16:46:37.277Z,66.86
2022-12-08T16:49:06.463Z,65.88
2022-12-08T16:51:34.839Z,64.78
2022-12-08T16:54:02.653Z,63.58
2022-12-08T16:56:33.283Z,62.93
2022-12-08T16:59:02.391Z,62.53
2022-12-08T17:01:31.263Z,61.93
2022-12-08T17:04:31.165Z,61.60
2022-12-08T17:06:47.325Z,61.45
2022-12-08T17:09:15.187Z,61.20
2022-12-08T17:11:43.873Z,60.85
2022-12-08T17:14:13.273Z,60.84
2022-12-08T17:16:41.440Z,60.74
2022-12-08T17:19:09.625Z,60.49
2022-12-08T17:21:37.483Z,60.36
2022-12-08T17:24:05.554Z,60.36
2022-12-08T17:26:33.725Z,60.25
2022-12-08T17:29:03.524Z,60.16
2022-12-08T17:31:32.374Z,60.15
2022-12-08T17:34:05.462Z,60.05
2022-12-08T17:36:33.220Z,59.91
2022-12-08T17:39:01.657Z,59.61
2022-12-08T17:41:30.039Z,59.55
2022-12-08T17:43:58.007Z,59.48
2022-12-08T17:46:26.054Z,58.10
2022-12-08T17:48:54.237Z,58.15
2022-12-08T17:51:22.114Z,60.42
2022-12-08T17:53:49.983Z,61.03
2022-12-08T17:56:21.250Z,61.16
2022-12-08T17:58:54.199Z,61.04
2022-12-08T18:01:23.913Z,63.68
2022-12-08T18:03:51.884Z,71.83
2022-12-08T18:06:20.120Z,70.62
2022-12-08T18:08:48.022Z,68.46
2022-12-08T18:11:18.865Z,67.46
2022-12-08T18:13:48.307Z,66.63
2022-12-08T18:16:17.593Z,66.09
2022-12-08T18:18:45.497Z,65.24
2022-12-08T18:21:15.470Z,64.74
2022-12-08T18:23:47.855Z,64.19
2022-12-08T18:26:15.961Z,63.80
2022-12-08T18:28:44.092Z,63.23
2022-12-08T18:31:17.468Z,62.64
2022-12-08T18:33:46.238Z,61.78
2022-12-08T18:36:17.073Z,61.03
2022-12-08T18:38:45.116Z,60.56
2022-12-08T18:41:23.491Z,60.30
2022-12-08T18:43:52.752Z,60.09
2022-12-08T18:46:20.946Z,59.86
2022-12-08T18:48:50.129Z,60.25
2022-12-08T18:51:20.967Z,60.30
2022-12-08T18:53:48.931Z,60.35
2022-12-08T18:56:28.814Z,60.40
2022-12-08T18:59:02.846Z,60.07
2022-12-08T19:01:36.411Z,59.93
2022-12-08T19:06:54.158Z,59.60
2022-12-08T19:09:22.824Z,58.98
2022-12-08T19:11:50.784Z,57.25
2022-12-08T19:14:22.684Z,57.62
2022-12-08T19:16:55.302Z,58.75
2022-12-08T19:19:24.412Z,62.09
2022-12-08T19:21:52.228Z,65.63
2022-12-08T19:24:20.348Z,66.60
2022-12-08T19:26:48.118Z,65.06
2022-12-08T19:29:16.180Z,62.34
2022-12-08T19:31:44.124Z,61.76
2022-12-08T19:34:13.252Z,61.15
2022-12-08T19:36:45.819Z,60.37
2022-12-08T19:39:35.813Z,60.19
2022-12-08T19:42:27.837Z,59.12
2022-12-08T19:44:55.831Z,57.24
2022-12-08T19:47:25.591Z,57.77
2022-12-08T19:49:55.222Z,58.84
2022-12-08T19:52:23.107Z,58.58
2022-12-08T19:54:50.992Z,60.27
2022-12-08T19:57:20.582Z,60.59
2022-12-08T19:59:53.097Z,61.55
2022-12-08T20:02:24.405Z,61.15
2022-12-08T20:04:52.556Z,61.59
2022-12-08T20:07:20.548Z,61.05
2022-12-08T20:09:48.495Z,61.45
2022-12-08T20:12:16.380Z,61.76
2022-12-08T20:14:46.054Z,66.02
2022-12-08T20:17:14.346Z,71.98
2022-12-08T20:19:42.213Z,69.86
2022-12-08T20:22:10.472Z,67.81
2022-12-08T20:24:38.352Z,65.55
2022-12-08T20:27:06.150Z,64.24
2022-12-08T20:29:34.084Z,63.24
2022-12-08T20:32:02.107Z,62.65
2022-12-08T20:34:31.483Z,62.00
2022-12-08T20:36:59.373Z,60.86
2022-12-08T20:39:27.459Z,60.44
2022-12-08T20:41:56.272Z,60.18
2022-12-08T20:44:24.140Z,59.96
2022-12-08T20:46:52.045Z,57.37
2022-12-08T20:49:20.188Z,57.30
2022-12-08T20:51:47.954Z,60.33
2022-12-08T20:54:15.758Z,60.29
2022-12-08T20:56:48.389Z,61.17
2022-12-08T20:59:17.755Z,61.99
2022-12-08T21:01:45.938Z,68.37
2022-12-08T21:04:14.131Z,69.52
2022-12-08T21:06:42.800Z,67.12
2022-12-08T21:09:10.975Z,65.24
2022-12-08T21:11:39.055Z,63.85
2022-12-08T21:14:06.919Z,62.67
2022-12-08T21:16:34.808Z,61.96
2022-12-08T21:19:03.289Z,61.23
2022-12-08T21:21:31.158Z,60.63
2022-12-08T21:23:59.113Z,60.56
2022-12-08T21:26:27.459Z,60.21
2022-12-08T21:28:58.523Z,58.47
2022-12-08T21:31:27.097Z,57.82
2022-12-08T21:33:55.330Z,59.51
2022-12-08T21:36:23.599Z,61.02
2022-12-08T21:38:51.643Z,61.52
2022-12-08T21:41:42.076Z,62.64
2022-12-08T21:44:12.239Z,68.64
2022-12-08T21:46:40.245Z,68.50
2022-12-08T21:49:08.648Z,66.70
2022-12-08T21:51:41.488Z,65.32
2022-12-08T21:54:18.265Z,64.16
2022-12-08T21:56:48.039Z,63.03
2022-12-08T21:59:17.048Z,62.23
2022-12-08T22:01:45.271Z,62.03
2022-12-08T22:04:17.476Z,61.64
2022-12-08T22:06:45.586Z,61.00
2022-12-08T22:09:15.305Z,60.94
2022-12-08T22:11:43.659Z,60.53
2022-12-08T22:14:14.892Z,60.06
2022-12-08T22:16:44.122Z,59.59
2022-12-08T22:19:12.817Z,59.57
2022-12-08T22:21:41.573Z,58.29
2022-12-08T22:24:09.828Z,57.13
2022-12-08T22:26:37.952Z,58.54
2022-12-08T22:29:05.977Z,60.40
2022-12-08T22:31:34.102Z,60.91
2022-12-08T22:34:02.395Z,62.24
2022-12-08T22:36:30.456Z,67.38
2022-12-08T22:38:58.340Z,68.67
2022-12-08T22:41:26.394Z,66.21
2022-12-08T22:43:54.294Z,64.94
2022-12-08T22:46:24.957Z,63.37
2022-12-08T22:48:53.206Z,62.83
2022-12-08T22:51:21.163Z,62.17
2022-12-08T22:53:48.951Z,61.53
2022-12-08T22:56:17.268Z,60.77
2022-12-08T22:58:45.530Z,60.66
2022-12-08T23:01:31.261Z,60.39
2022-12-08T23:04:00.573Z,60.04
2022-12-08T23:06:29.610Z,59.66
2022-12-08T23:08:58.166Z,57.94
2022-12-08T23:11:29.230Z,58.10
2022-12-08T23:14:00.932Z,59.54
2022-12-08T23:16:30.499Z,61.58
2022-12-08T23:18:58.535Z,66.68
2022-12-08T23:21:26.481Z,68.87
2022-12-08T23:23:54.757Z,65.53
2022-12-08T23:26:25.778Z,63.40
2022-12-08T23:28:53.756Z,62.97
2022-12-08T23:31:22.254Z,62.72
2022-12-08T23:33:50.349Z,62.49
2022-12-08T23:36:22.264Z,62.03
2022-12-08T23:38:50.129Z,61.25
2022-12-08T23:41:18.437Z,60.68
2022-12-08T23:43:50.891Z,60.32
2022-12-08T23:46:21.068Z,59.95
2022-12-08T23:48:50.196Z,59.60
2022-12-08T23:51:18.675Z,59.37
2022-12-08T23:53:46.885Z,57.64
2022-12-08T23:56:16.356Z,58.11
2022-12-08T23:58:44.522Z,58.70
